TAF Text Data
IDs:
Format:
Raw Decoded Include METAR

Data at: 2102 UTC 17 Nov 2019

TAF PGUA 171800Z 1718/1824 04012G18KT 8000 -SHRA BKN015 QNH2980INS
  BECMG 1723/1724 06015G25KT 9999 VCSH BKN020 QNH2980INS TX30/1805Z TN24/1721Z